Time;durP1;ratioP1;P1;durP2;ratioP2;P2;SDS_P1;SDS_P2;PMS_P1;PMS_P2;Temp;Humidity;BMP_temperature;BMP_pressure;BME280_temperature;BME280_humidity;BME280_pressure;Samples;Min_cycle;Max_cycle;Signal;HPM_P1;HPM_P2
2022/09/06 00:00:47;;;;;;;4.50;2.30;;;24.60;96.70;;;;;;5027246;28;20055;-77
2022/09/06 00:03:16;;;;;;;5.18;2.70;;;24.60;96.70;;;;;;5045766;28;20049;-77
2022/09/06 00:05:44;;;;;;;8.85;2.45;;;24.60;96.70;;;;;;5025818;28;20461;-79
2022/09/06 00:08:13;;;;;;;4.90;2.25;;;24.60;96.70;;;;;;5026627;28;20057;-78
2022/09/06 00:10:41;;;;;;;4.25;2.10;;;24.50;96.70;;;;;;5043804;28;20254;-78
2022/09/06 00:13:12;;;;;;;4.03;1.98;;;24.50;96.70;;;;;;5045365;28;20044;-78
2022/09/06 00:15:40;;;;;;;5.38;2.30;;;24.50;96.70;;;;;;5042608;28;20048;-78
2022/09/06 00:18:08;;;;;;;3.40;2.20;;;24.50;96.70;;;;;;5044267;28;20057;-78
2022/09/06 00:20:40;;;;;;;4.65;2.38;;;24.60;96.70;;;;;;5042142;28;20056;-77
2022/09/06 00:23:08;;;;;;;4.13;2.58;;;24.60;96.70;;;;;;5045225;28;20052;-78
2022/09/06 00:25:36;;;;;;;4.10;2.70;;;24.60;96.70;;;;;;5043545;28;20044;-78
2022/09/06 00:28:05;;;;;;;3.63;2.45;;;24.50;96.70;;;;;;5046636;28;20118;-77
2022/09/06 00:30:36;;;;;;;5.43;2.60;;;24.50;96.70;;;;;;5041292;28;20068;-78
2022/09/06 00:33:04;;;;;;;4.22;2.45;;;24.50;96.70;;;;;;5041931;28;20831;-78
2022/09/06 00:35:32;;;;;;;4.30;2.58;;;24.50;96.70;;;;;;5043798;28;20159;-77
2022/09/06 00:38:01;;;;;;;4.13;2.60;;;24.40;96.70;;;;;;5044636;28;20401;-78
2022/09/06 00:40:32;;;;;;;4.70;2.88;;;24.40;96.70;;;;;;5042302;28;20041;-77
2022/09/06 00:43:01;;;;;;;4.47;2.30;;;24.50;96.70;;;;;;5046051;28;20806;-78
2022/09/06 00:45:30;;;;;;;7.78;2.28;;;24.50;96.70;;;;;;5042156;28;20477;-77
2022/09/06 00:48:01;;;;;;;2.80;1.73;;;24.40;96.70;;;;;;5044515;28;20052;-78
2022/09/06 00:50:29;;;;;;;2.58;2.00;;;24.40;96.70;;;;;;5045112;28;20593;-77
2022/09/06 00:52:57;;;;;;;4.40;2.25;;;24.30;96.70;;;;;;5025217;28;20051;-78
2022/09/06 00:55:25;;;;;;;3.92;2.28;;;24.30;96.70;;;;;;5040831;28;20049;-79
2022/09/06 00:57:55;;;;;;;3.80;2.25;;;24.20;96.70;;;;;;5043730;28;20067;-78
2022/09/06 01:00:23;;;;;;;5.57;2.30;;;24.30;96.70;;;;;;5059660;28;20045;-78
2022/09/06 01:02:53;;;;;;;4.82;2.60;;;24.30;96.70;;;;;;5045232;28;20040;-77
2022/09/06 01:05:30;;;;;;;5.65;2.80;;;24.20;96.70;;;;;;5038842;28;20052;-77
2022/09/06 01:08:14;;;;;;;6.00;2.65;;;24.20;96.70;;;;;;5041649;28;20040;-78
2022/09/06 01:11:17;;;;;;;8.05;3.50;;;24.20;96.70;;;;;;5037245;28;20049;-78
2022/09/06 01:13:54;;;;;;;5.68;3.05;;;24.10;96.70;;;;;;5014228;28;20110;-78
2022/09/06 01:16:29;;;;;;;5.85;2.85;;;24.10;96.70;;;;;;5043134;28;20502;-77
2022/09/06 01:19:28;;;;;;;9.05;3.10;;;24.10;96.70;;;;;;5042379;28;20037;-77
2022/09/06 01:22:08;;;;;;;6.95;2.70;;;24.00;96.70;;;;;;5018579;28;20059;-78
2022/09/06 01:25:00;;;;;;;5.20;2.63;;;24.00;96.70;;;;;;5038297;28;20503;-78
2022/09/06 01:28:07;;;;;;;5.95;2.78;;;24.00;96.70;;;;;;5036047;28;20124;-78
2022/09/06 01:30:41;;;;;;;4.00;2.40;;;24.00;96.70;;;;;;5026989;28;20683;-78
2022/09/06 01:33:16;;;;;;;5.38;2.75;;;24.00;96.70;;;;;;5038238;28;20068;-78
2022/09/06 01:35:49;;;;;;;3.90;2.35;;;24.00;96.70;;;;;;5043288;28;20405;-77
2022/09/06 01:38:18;;;;;;;2.97;2.40;;;24.10;96.70;;;;;;5040676;28;20053;-79
2022/09/06 01:40:46;;;;;;;4.40;2.50;;;24.00;96.70;;;;;;5044046;28;20389;-78
2022/09/06 01:43:22;;;;;;;5.75;2.40;;;23.90;96.70;;;;;;5034091;28;20418;-77
2022/09/06 01:45:59;;;;;;;4.82;2.58;;;24.00;96.70;;;;;;5037261;28;20041;-78
2022/09/06 01:48:39;;;;;;;5.20;2.45;;;24.10;96.70;;;;;;5041734;28;20052;-77
2022/09/06 01:51:22;;;;;;;4.53;2.60;;;24.00;96.70;;;;;;5024795;28;20049;-77
2022/09/06 01:54:09;;;;;;;6.80;2.15;;;23.90;96.70;;;;;;5040147;28;20053;-77
2022/09/06 01:56:44;;;;;;;6.13;2.33;;;23.90;96.70;;;;;;5042049;28;20087;-78
2022/09/06 01:59:50;;;;;;;4.47;2.22;;;23.80;96.70;;;;;;5042460;28;20493;-78
2022/09/06 02:02:25;;;;;;;5.35;2.50;;;23.90;96.70;;;;;;5041797;28;20049;-77
2022/09/06 02:05:00;;;;;;;5.13;2.33;;;24.00;96.70;;;;;;5044582;28;20131;-78
2022/09/06 02:07:31;;;;;;;4.28;2.50;;;23.80;96.70;;;;;;5040011;28;20057;-77
2022/09/06 02:10:05;;;;;;;4.43;2.45;;;23.80;96.70;;;;;;5043067;28;20052;-78
2022/09/06 02:12:38;;;;;;;5.20;2.40;;;23.80;96.70;;;;;;5040790;28;20048;-77
2022/09/06 02:15:10;;;;;;;6.35;2.65;;;23.70;96.70;;;;;;5043520;28;20479;-77
2022/09/06 02:17:44;;;;;;;5.40;2.38;;;23.70;96.70;;;;;;5042884;28;20064;-77
2022/09/06 02:20:16;;;;;;;4.03;2.30;;;23.60;96.70;;;;;;5040937;28;20131;-79
2022/09/06 02:22:46;;;;;;;5.65;2.60;;;23.70;96.70;;;;;;5043145;28;20045;-78
2022/09/06 02:25:21;;;;;;;3.60;2.20;;;23.60;96.70;;;;;;5041614;28;20545;-78
2022/09/06 02:27:49;;;;;;;4.00;2.17;;;23.50;96.70;;;;;;5043046;28;20047;-78
2022/09/06 02:30:19;;;;;;;3.75;2.38;;;23.40;96.70;;;;;;5041641;28;20033;-78
2022/09/06 02:32:54;;;;;;;4.53;2.60;;;23.50;96.70;;;;;;5039171;28;20045;-78
2022/09/06 02:35:23;;;;;;;5.07;2.53;;;23.50;96.70;;;;;;5041724;28;20076;-77
2022/09/06 02:37:51;;;;;;;4.75;2.60;;;23.40;96.70;;;;;;5041150;28;20049;-78
2022/09/06 02:40:19;;;;;;;3.67;2.13;;;23.40;96.70;;;;;;5042125;28;20550;-77
2022/09/06 02:42:47;;;;;;;4.03;2.70;;;23.30;96.70;;;;;;5022736;28;20128;-78
2022/09/06 02:45:15;;;;;;;5.15;2.55;;;23.30;96.70;;;;;;5036959;28;20052;-77
2022/09/06 02:47:45;;;;;;;3.50;2.63;;;23.40;96.70;;;;;;5042519;28;20041;-77
2022/09/06 02:50:14;;;;;;;4.10;2.60;;;23.40;96.70;;;;;;5037723;28;20041;-77
2022/09/06 02:52:42;;;;;;;10.25;2.95;;;23.30;96.70;;;;;;5034554;28;20045;-77
2022/09/06 02:55:10;;;;;;;4.95;2.47;;;23.30;96.70;;;;;;5039580;28;20041;-78
2022/09/06 02:57:38;;;;;;;6.13;2.88;;;23.30;96.70;;;;;;5042670;28;20043;-78
2022/09/06 03:00:07;;;;;;;5.72;2.85;;;23.30;96.70;;;;;;5033536;28;20041;-77
2022/09/06 03:02:35;;;;;;;6.10;2.67;;;23.20;96.70;;;;;;5043390;28;20045;-78
2022/09/06 03:05:05;;;;;;;4.75;2.90;;;23.20;96.70;;;;;;5039184;28;20060;-78
2022/09/06 03:07:33;;;;;;;3.33;2.40;;;23.30;96.70;;;;;;5042371;28;20052;-78
2022/09/06 03:10:02;;;;;;;5.38;2.72;;;23.20;96.70;;;;;;5039557;28;20056;-77
2022/09/06 03:12:30;;;;;;;4.20;2.97;;;23.30;96.70;;;;;;5039998;28;20503;-78
2022/09/06 03:14:58;;;;;;;3.60;2.65;;;23.30;96.70;;;;;;5037104;28;20666;-78
2022/09/06 03:17:25;;;;;;;5.18;2.70;;;23.30;96.70;;;;;;5033967;28;20044;-78
2022/09/06 03:19:54;;;;;;;4.95;3.05;;;23.20;96.70;;;;;;5040364;28;20041;-79
2022/09/06 03:22:23;;;;;;;4.47;2.72;;;23.10;96.70;;;;;;5042711;28;20041;-77
2022/09/06 03:24:51;;;;;;;7.78;3.00;;;23.10;96.70;;;;;;5043957;28;20044;-77
2022/09/06 03:27:19;;;;;;;4.75;2.50;;;23.10;96.70;;;;;;5042963;28;20046;-78
2022/09/06 03:29:47;;;;;;;7.45;2.72;;;23.00;96.70;;;;;;5038159;28;20819;-78
2022/09/06 03:32:15;;;;;;;6.25;2.65;;;22.90;96.70;;;;;;5047068;28;20049;-78
2022/09/06 03:34:43;;;;;;;5.38;2.83;;;22.90;96.70;;;;;;5046393;28;20057;-78
2022/09/06 03:37:11;;;;;;;6.07;3.05;;;22.90;96.70;;;;;;5043131;28;20036;-77
2022/09/06 03:39:41;;;;;;;4.35;2.45;;;22.80;96.70;;;;;;5046354;28;20486;-77
2022/09/06 03:42:09;;;;;;;3.70;2.85;;;22.60;96.70;;;;;;5045385;28;20124;-77
2022/09/06 03:44:37;;;;;;;6.40;2.83;;;22.60;96.70;;;;;;5037091;28;20060;-77
2022/09/06 03:47:05;;;;;;;4.68;2.90;;;22.70;96.70;;;;;;5046647;28;20037;-78
2022/09/06 03:49:33;;;;;;;9.70;3.60;;;22.80;96.70;;;;;;5045881;28;20053;-78
2022/09/06 03:52:02;;;;;;;9.45;2.95;;;22.80;96.70;;;;;;5044651;28;20406;-77
2022/09/06 03:54:30;;;;;;;5.05;2.55;;;22.90;96.70;;;;;;5042699;28;20044;-79
2022/09/06 03:56:59;;;;;;;4.03;2.35;;;23.00;96.70;;;;;;5043528;28;20041;-77
2022/09/06 03:59:27;;;;;;;6.70;2.90;;;23.00;96.70;;;;;;5046631;28;20133;-78
2022/09/06 04:01:55;;;;;;;6.63;2.78;;;23.00;96.70;;;;;;5044882;28;20044;-79
2022/09/06 04:04:23;;;;;;;5.43;2.60;;;22.90;96.70;;;;;;5045778;28;20060;-78
2022/09/06 04:06:51;;;;;;;4.20;2.58;;;22.90;96.70;;;;;;5041148;28;20042;-78
2022/09/06 04:09:19;;;;;;;4.90;2.70;;;22.90;96.70;;;;;;5023319;28;20046;-77
2022/09/06 04:11:47;;;;;;;4.05;2.50;;;22.90;96.70;;;;;;5044425;28;20473;-78
2022/09/06 04:14:17;;;;;;;2.75;2.35;;;22.90;96.70;;;;;;5045447;28;20045;-76
2022/09/06 04:16:45;;;;;;;4.63;2.95;;;22.90;96.70;;;;;;5040245;28;20436;-78
2022/09/06 04:19:13;;;;;;;3.72;2.42;;;22.90;96.70;;;;;;5044958;28;20080;-77
2022/09/06 04:21:41;;;;;;;5.70;2.90;;;22.80;96.70;;;;;;5042714;28;20048;-78
2022/09/06 04:24:09;;;;;;;5.55;2.53;;;22.70;96.70;;;;;;5045479;28;20059;-78
2022/09/06 04:26:37;;;;;;;4.75;2.58;;;22.70;96.70;;;;;;5042878;28;20053;-78
2022/09/06 04:29:05;;;;;;;5.13;2.80;;;22.60;96.70;;;;;;5045294;28;20053;-78
2022/09/06 04:31:35;;;;;;;3.22;2.33;;;22.70;96.70;;;;;;5045588;28;20037;-78
2022/09/06 04:34:03;;;;;;;3.30;2.35;;;22.70;96.70;;;;;;5042589;28;20037;-78
2022/09/06 04:36:31;;;;;;;4.43;2.45;;;22.60;96.70;;;;;;5039683;28;20151;-77
2022/09/06 04:38:59;;;;;;;5.10;2.20;;;22.60;96.70;;;;;;5044054;28;20049;-77
2022/09/06 04:41:27;;;;;;;5.75;2.95;;;22.60;96.70;;;;;;5041349;28;20040;-78
2022/09/06 04:43:55;;;;;;;3.03;2.30;;;22.50;96.70;;;;;;5044737;28;20045;-78
2022/09/06 04:46:25;;;;;;;4.15;2.10;;;22.30;96.70;;;;;;5043408;28;20056;-79
2022/09/06 04:48:56;;;;;;;4.43;2.03;;;22.20;96.70;;;;;;5043753;28;20049;-78
2022/09/06 04:51:25;;;;;;;3.90;2.17;;;22.20;96.70;;;;;;5040592;28;20041;-78
2022/09/06 04:53:53;;;;;;;4.65;2.42;;;22.30;96.70;;;;;;5043441;28;20547;-77
2022/09/06 04:56:22;;;;;;;3.17;2.13;;;22.30;96.70;;;;;;5045602;28;20045;-77
2022/09/06 04:58:51;;;;;;;3.95;2.25;;;22.30;96.70;;;;;;5044359;28;20055;-78
2022/09/06 05:01:19;;;;;;;7.85;2.50;;;22.30;96.70;;;;;;5043473;28;20128;-78
2022/09/06 05:03:48;;;;;;;3.08;2.30;;;22.30;96.70;;;;;;5041381;28;20462;-78
2022/09/06 05:06:21;;;;;;;3.95;2.10;;;22.40;96.70;;;;;;5044132;28;20049;-78
2022/09/06 05:08:50;;;;;;;5.00;2.10;;;22.40;96.70;;;;;;5044977;28;20044;-79
2022/09/06 05:11:18;;;;;;;4.10;2.05;;;22.30;96.70;;;;;;5035588;28;20041;-78
2022/09/06 05:13:46;;;;;;;4.43;2.17;;;22.40;96.70;;;;;;5044808;28;20037;-79
2022/09/06 05:16:14;;;;;;;5.07;2.40;;;22.30;96.70;;;;;;5041775;28;20045;-78
2022/09/06 05:18:43;;;;;;;2.92;2.15;;;22.40;96.70;;;;;;5042466;28;20057;-78
2022/09/06 05:21:11;;;;;;;4.22;2.17;;;22.50;96.70;;;;;;5027732;28;20140;-77
2022/09/06 05:23:41;;;;;;;4.30;2.47;;;22.50;96.70;;;;;;5044649;28;20069;-78
2022/09/06 05:26:09;;;;;;;3.42;2.60;;;22.60;96.70;;;;;;5044263;28;20041;-78
2022/09/06 05:28:37;;;;;;;3.83;2.50;;;22.70;96.70;;;;;;5026878;28;20053;-78
2022/09/06 05:31:07;;;;;;;7.22;2.50;;;22.60;96.70;;;;;;5045961;28;20048;-77
2022/09/06 05:33:35;;;;;;;4.57;2.45;;;22.70;96.70;;;;;;5044121;28;20670;-77
2022/09/06 05:36:04;;;;;;;5.95;2.78;;;22.70;96.70;;;;;;5043581;28;20072;-77
2022/09/06 05:38:32;;;;;;;5.93;2.95;;;22.70;96.70;;;;;;5041455;28;20055;-78
2022/09/06 05:41:02;;;;;;;4.22;2.75;;;22.80;96.70;;;;;;5040648;28;20095;-79
2022/09/06 05:43:30;;;;;;;5.18;2.88;;;22.80;96.70;;;;;;5043533;28;20041;-77
2022/09/06 05:45:58;;;;;;;4.72;2.80;;;22.80;96.70;;;;;;5044565;28;20036;-77
2022/09/06 05:48:26;;;;;;;3.53;2.70;;;22.80;96.70;;;;;;5044971;28;20712;-79
2022/09/06 05:51:01;;;;;;;6.22;2.83;;;22.80;96.70;;;;;;5026953;28;20068;-79
2022/09/06 05:53:33;;;;;;;4.95;2.85;;;22.80;96.70;;;;;;5039447;28;20130;-78
2022/09/06 05:56:05;;;;;;;4.53;2.65;;;22.80;96.70;;;;;;5042885;28;20053;-78
2022/09/06 05:58:33;;;;;;;6.55;3.05;;;22.70;96.70;;;;;;5042569;28;20051;-78
2022/09/06 06:01:06;;;;;;;5.25;2.80;;;22.70;96.70;;;;;;5043134;28;20041;-78
2022/09/06 06:03:35;;;;;;;5.18;3.03;;;22.60;96.70;;;;;;5043450;28;20060;-78
2022/09/06 06:06:03;;;;;;;4.00;3.05;;;22.60;96.70;;;;;;5043939;28;20037;-77
2022/09/06 06:08:31;;;;;;;5.28;3.00;;;22.70;96.70;;;;;;5041750;28;20137;-79
2022/09/06 06:10:59;;;;;;;4.05;3.13;;;22.80;96.70;;;;;;5043410;28;20526;-78
2022/09/06 06:13:33;;;;;;;2.78;2.42;;;22.90;96.70;;;;;;5024091;28;20084;-78
2022/09/06 06:16:02;;;;;;;6.68;2.92;;;22.80;96.70;;;;;;5041363;28;20041;-77
2022/09/06 06:18:31;;;;;;;6.85;3.83;;;22.90;96.70;;;;;;5043270;28;20064;-77
2022/09/06 06:21:11;;;;;;;5.13;3.85;;;22.90;96.70;;;;;;5039642;28;20045;-77
2022/09/06 06:23:40;;;;;;;6.88;4.40;;;22.80;96.70;;;;;;5036124;28;20063;-78
2022/09/06 06:26:09;;;;;;;6.50;4.05;;;22.70;96.70;;;;;;5040433;28;20037;-77
2022/09/06 06:28:39;;;;;;;7.75;4.50;;;22.80;96.70;;;;;;5026436;28;20138;-79
2022/09/06 06:31:10;;;;;;;5.40;4.50;;;22.90;96.70;;;;;;5036948;28;20056;-78
2022/09/06 06:33:39;;;;;;;9.10;5.38;;;23.00;96.70;;;;;;5043929;28;20495;-78
2022/09/06 06:36:21;;;;;;;7.95;5.55;;;23.00;96.70;;;;;;5037117;28;20592;-77
2022/09/06 06:38:53;;;;;;;9.75;5.57;;;23.00;96.70;;;;;;5040573;28;20690;-78
2022/09/06 06:41:23;;;;;;;7.65;5.63;;;23.00;96.70;;;;;;5039503;28;20045;-78
2022/09/06 06:43:54;;;;;;;8.35;5.40;;;23.00;96.70;;;;;;5044049;28;20063;-78
2022/09/06 06:46:24;;;;;;;7.72;5.38;;;23.20;96.70;;;;;;5033108;28;20451;-77
2022/09/06 06:48:54;;;;;;;10.02;6.10;;;23.30;96.70;;;;;;5025864;28;20076;-77
2022/09/06 06:51:24;;;;;;;12.02;6.07;;;23.40;96.70;;;;;;5035774;28;20051;-78
2022/09/06 06:53:53;;;;;;;8.32;5.40;;;23.30;96.70;;;;;;5043087;28;20045;-78
2022/09/06 06:56:23;;;;;;;9.20;5.00;;;23.40;96.70;;;;;;5039644;28;20128;-78
2022/09/06 06:58:56;;;;;;;8.85;5.10;;;23.50;96.70;;;;;;5041792;28;20048;-77
2022/09/06 07:01:26;;;;;;;6.93;4.95;;;23.50;96.70;;;;;;5039767;28;20047;-78
2022/09/06 07:03:55;;;;;;;5.43;3.97;;;23.50;96.70;;;;;;5041020;28;20148;-77
2022/09/06 07:06:24;;;;;;;6.85;3.72;;;23.50;96.70;;;;;;5041229;28;20037;-77
2022/09/06 07:09:12;;;;;;;6.45;4.22;;;23.70;96.70;;;;;;5036220;28;20090;-77
2022/09/06 07:11:41;;;;;;;6.90;4.03;;;23.80;96.70;;;;;;5022483;28;20398;-79
2022/09/06 07:14:11;;;;;;;7.22;4.05;;;23.90;96.70;;;;;;5037851;28;20087;-77
2022/09/06 07:16:40;;;;;;;6.35;3.80;;;23.80;96.70;;;;;;5038303;28;20060;-77
2022/09/06 07:19:08;;;;;;;5.85;3.65;;;23.90;96.70;;;;;;5027510;28;20041;-78
2022/09/06 07:21:57;;;;;;;6.10;4.18;;;24.00;96.70;;;;;;5041155;28;20494;-77
2022/09/06 07:24:32;;;;;;;6.65;3.80;;;24.00;96.70;;;;;;5039087;28;20041;-77
2022/09/06 07:27:00;;;;;;;7.07;4.20;;;24.10;96.70;;;;;;5042033;28;20131;-77
2022/09/06 07:29:50;;;;;;;8.40;4.03;;;24.10;96.70;;;;;;5037567;28;20136;-77
2022/09/06 07:32:19;;;;;;;6.75;4.20;;;24.20;96.70;;;;;;5039437;28;20041;-77
2022/09/06 07:34:47;;;;;;;8.52;4.00;;;24.30;96.70;;;;;;5039414;28;20053;-77
2022/09/06 07:37:16;;;;;;;5.43;4.07;;;24.40;96.70;;;;;;5040504;28;20090;-77
2022/09/06 07:39:44;;;;;;;7.30;4.07;;;24.40;96.70;;;;;;5042305;28;20057;-79
2022/09/06 07:42:14;;;;;;;6.43;4.03;;;24.40;96.70;;;;;;5042294;28;20090;-77
2022/09/06 07:44:43;;;;;;;5.95;3.65;;;24.50;96.70;;;;;;5042400;28;20124;-77
2022/09/06 07:47:14;;;;;;;11.10;4.38;;;24.60;96.70;;;;;;5041425;28;20051;-77
2022/09/06 07:50:03;;;;;;;6.10;4.18;;;24.60;96.70;;;;;;5030185;28;20494;-77
2022/09/06 07:52:52;;;;;;;7.65;3.95;;;24.70;96.70;;;;;;5040169;28;20041;-77
2022/09/06 07:55:41;;;;;;;4.35;3.47;;;24.80;96.70;;;;;;5032058;28;20093;-78
2022/09/06 07:58:09;;;;;;;5.82;4.25;;;24.80;96.70;;;;;;5039790;28;20045;-78
2022/09/06 08:00:39;;;;;;;6.85;3.63;;;24.80;96.70;;;;;;5042254;28;20088;-77
2022/09/06 08:03:10;;;;;;;6.75;3.92;;;24.90;96.70;;;;;;5039265;28;20049;-77
2022/09/06 08:05:39;;;;;;;6.22;4.25;;;24.90;96.70;;;;;;5041822;28;20057;-77
2022/09/06 08:08:27;;;;;;;6.20;3.88;;;25.00;96.70;;;;;;5039914;28;20045;-78
2022/09/06 08:11:16;;;;;;;4.03;3.63;;;25.10;96.70;;;;;;5041131;28;20056;-77
2022/09/06 08:13:48;;;;;;;8.13;4.00;;;25.20;96.70;;;;;;5039424;28;20049;-77
2022/09/06 08:16:18;;;;;;;4.80;3.25;;;25.20;96.70;;;;;;5038773;28;20503;-77
2022/09/06 08:18:52;;;;;;;6.68;3.50;;;25.20;96.70;;;;;;5043270;28;20147;-78
2022/09/06 08:21:25;;;;;;;3.70;3.05;;;25.30;96.70;;;;;;5042885;28;20045;-78
2022/09/06 08:23:56;;;;;;;6.70;3.78;;;25.40;96.70;;;;;;5029858;28;20132;-77
2022/09/06 08:26:25;;;;;;;6.50;3.50;;;25.60;96.70;;;;;;5045343;28;20095;-78
2022/09/06 08:28:54;;;;;;;5.72;3.40;;;25.70;96.70;;;;;;5039421;28;20045;-78
2022/09/06 08:31:23;;;;;;;5.55;3.05;;;25.80;96.70;;;;;;5041653;28;20111;-77
2022/09/06 08:33:54;;;;;;;4.13;2.95;;;25.90;96.70;;;;;;5046848;28;20041;-77
2022/09/06 08:36:26;;;;;;;5.05;2.85;;;26.00;96.70;;;;;;5039457;28;20066;-77
2022/09/06 08:38:54;;;;;;;6.55;2.90;;;26.10;96.70;;;;;;5044482;28;20047;-78
2022/09/06 08:41:25;;;;;;;4.90;2.63;;;26.20;96.70;;;;;;5045017;28;20531;-78
2022/09/06 08:43:55;;;;;;;4.80;2.83;;;26.30;96.70;;;;;;5044565;28;20071;-77
2022/09/06 08:46:53;;;;;;;3.50;2.85;;;26.30;96.70;;;;;;5042547;28;20049;-78
2022/09/06 08:49:24;;;;;;;7.47;2.85;;;26.30;96.70;;;;;;5043187;28;20048;-79
2022/09/06 08:52:04;;;;;;;5.85;2.80;;;26.40;96.70;;;;;;5035242;28;20049;-78
2022/09/06 08:54:38;;;;;;;3.95;3.10;;;26.40;96.70;;;;;;5042901;28;20040;-77
2022/09/06 08:57:14;;;;;;;5.60;2.50;;;26.60;96.70;;;;;;5040066;28;20091;-78
2022/09/06 08:59:43;;;;;;;5.57;3.22;;;26.70;96.70;;;;;;5043777;28;20925;-77
2022/09/06 09:02:14;;;;;;;3.13;2.72;;;26.80;96.70;;;;;;5043613;28;20502;-78
2022/09/06 09:04:49;;;;;;;5.95;2.60;;;26.80;96.70;;;;;;5043993;28;20053;-78
2022/09/06 09:07:43;;;;;;;3.90;2.70;;;26.80;96.70;;;;;;5044231;28;20041;-78
2022/09/06 09:10:15;;;;;;;4.13;2.95;;;26.80;96.70;;;;;;5034500;28;20136;-78
2022/09/06 09:12:47;;;;;;;5.10;2.95;;;26.90;96.70;;;;;;5043643;28;20067;-78
2022/09/06 09:15:17;;;;;;;5.63;3.13;;;26.90;96.70;;;;;;5045028;28;20052;-78
2022/09/06 09:17:49;;;;;;;3.97;2.53;;;27.00;96.70;;;;;;5045947;28;20052;-77
2022/09/06 09:20:20;;;;;;;5.40;2.35;;;27.00;96.70;;;;;;5041431;28;20418;-78
2022/09/06 09:22:49;;;;;;;7.35;2.88;;;27.10;96.70;;;;;;5044614;28;20052;-77
2022/09/06 09:25:21;;;;;;;6.00;2.70;;;27.10;96.70;;;;;;5025231;28;20056;-77
2022/09/06 09:27:56;;;;;;;4.28;2.65;;;27.10;96.70;;;;;;5044382;28;20041;-78
2022/09/06 09:30:26;;;;;;;3.35;2.15;;;27.30;96.70;;;;;;5038994;28;20375;-78
2022/09/06 09:33:26;;;;;;;6.63;2.60;;;27.50;96.70;;;;;;5042330;28;20045;-78
2022/09/06 09:35:59;;;;;;;5.65;2.60;;;27.80;96.70;;;;;;5043437;28;20037;-79
2022/09/06 09:38:31;;;;;;;5.43;2.30;;;27.90;96.70;;;;;;5042020;28;20044;-77
2022/09/06 09:41:02;;;;;;;3.08;1.67;;;28.00;96.70;;;;;;5043927;28;20504;-78
2022/09/06 09:43:33;;;;;;;3.95;1.80;;;28.00;96.70;;;;;;5042325;28;20075;-77
2022/09/06 09:46:26;;;;;;;3.85;2.08;;;28.00;96.70;;;;;;5043229;28;20709;-77
2022/09/06 09:49:07;;;;;;;4.05;2.35;;;27.90;96.70;;;;;;5035300;28;20049;-78
2022/09/06 09:51:39;;;;;;;3.97;1.90;;;28.10;96.70;;;;;;5039719;28;20137;-77
2022/09/06 09:54:09;;;;;;;3.90;1.50;;;28.00;96.70;;;;;;5039992;28;20912;-78
2022/09/06 09:56:42;;;;;;;2.75;1.77;;;28.10;96.70;;;;;;5042270;28;20045;-78
2022/09/06 09:59:24;;;;;;;5.35;2.13;;;28.30;96.70;;;;;;5030496;28;20060;-79
2022/09/06 10:01:55;;;;;;;5.75;1.88;;;28.30;96.70;;;;;;5042239;28;20507;-78
2022/09/06 10:04:29;;;;;;;3.42;1.92;;;28.60;96.70;;;;;;5042168;28;20048;-77
2022/09/06 10:07:16;;;;;;;3.50;1.98;;;28.60;96.70;;;;;;5034694;28;20533;-78
2022/09/06 10:09:47;;;;;;;6.25;3.95;;;28.70;96.70;;;;;;5044598;28;20888;-78
2022/09/06 10:12:18;;;;;;;3.88;2.22;;;28.80;96.70;;;;;;5037121;28;20068;-77
2022/09/06 10:14:48;;;;;;;4.22;2.30;;;28.60;96.70;;;;;;5042810;28;20056;-77
2022/09/06 10:17:29;;;;;;;5.18;2.38;;;28.70;96.70;;;;;;5040064;28;20518;-78
2022/09/06 10:20:02;;;;;;;4.75;2.25;;;28.70;96.70;;;;;;5043158;28;20056;-79
2022/09/06 10:22:42;;;;;;;3.95;2.60;;;28.70;96.70;;;;;;5038760;28;20156;-78
2022/09/06 10:25:31;;;;;;;6.60;2.10;;;28.80;96.70;;;;;;5041951;28;20053;-77
2022/09/06 10:28:32;;;;;;;4.90;1.80;;;28.80;96.70;;;;;;5042760;28;20073;-78
2022/09/06 10:31:25;;;;;;;5.68;1.88;;;28.90;96.70;;;;;;5034631;28;20118;-78
2022/09/06 10:34:06;;;;;;;3.28;1.67;;;29.00;96.70;;;;;;5009855;28;20060;-77
2022/09/06 10:36:38;;;;;;;7.15;1.83;;;29.30;96.70;;;;;;5032222;28;20036;-78
2022/09/06 10:39:21;;;;;;;4.38;1.60;;;29.60;96.70;;;;;;5044224;28;20048;-78
2022/09/06 10:42:04;;;;;;;3.33;1.95;;;29.70;96.70;;;;;;5038349;28;20053;-78
2022/09/06 10:44:49;;;;;;;2.85;1.85;;;29.90;96.70;;;;;;5041702;28;20053;-79
2022/09/06 10:47:18;;;;;;;4.25;1.60;;;30.10;96.70;;;;;;5042257;28;20502;-77
2022/09/06 10:49:53;;;;;;;4.30;2.00;;;30.20;96.70;;;;;;5037595;28;20045;-77
2022/09/06 10:52:26;;;;;;;5.30;2.03;;;30.30;96.70;;;;;;5036823;28;20045;-78
2022/09/06 10:55:02;;;;;;;3.13;2.08;;;30.40;96.70;;;;;;5041744;28;20383;-78
2022/09/06 10:57:39;;;;;;;5.07;1.83;;;30.40;96.70;;;;;;5041046;28;20045;-78
2022/09/06 11:00:28;;;;;;;3.35;1.42;;;30.60;96.70;;;;;;5037338;28;20110;-78
2022/09/06 11:03:08;;;;;;;3.30;1.58;;;30.70;96.70;;;;;;5041964;28;20498;-78
2022/09/06 11:06:03;;;;;;;2.03;1.40;;;30.80;96.70;;;;;;5039005;28;20126;-78
2022/09/06 11:08:38;;;;;;;4.78;1.67;;;30.80;96.70;;;;;;5037230;28;20549;-78
2022/09/06 11:11:22;;;;;;;3.70;1.30;;;30.80;96.70;;;;;;5041224;28;20051;-78
2022/09/06 11:13:51;;;;;;;2.92;1.33;;;30.90;96.70;;;;;;5034957;28;20041;-78
2022/09/06 11:16:24;;;;;;;2.30;1.30;;;31.10;96.70;;;;;;5056216;28;20056;-78
2022/09/06 11:18:59;;;;;;;2.30;1.40;;;31.20;96.70;;;;;;5004898;28;20048;-78
2022/09/06 11:21:53;;;;;;;5.00;1.42;;;31.20;96.70;;;;;;5041744;28;20142;-78
2022/09/06 11:24:33;;;;;;;2.10;1.25;;;31.30;96.70;;;;;;5022194;28;20055;-78
2022/09/06 11:27:15;;;;;;;3.92;1.40;;;31.30;96.70;;;;;;5026599;28;20305;-79
2022/09/06 11:29:50;;;;;;;2.38;1.13;;;31.20;96.70;;;;;;5006557;28;20061;-78
2022/09/06 11:32:35;;;;;;;4.45;1.20;;;31.20;96.70;;;;;;5042181;28;20049;-78
2022/09/06 11:35:10;;;;;;;4.43;1.40;;;31.20;96.70;;;;;;5008013;28;20402;-78
2022/09/06 11:37:50;;;;;;;4.68;1.63;;;31.40;96.70;;;;;;5038025;28;20049;-78
2022/09/06 11:40:24;;;;;;;3.42;1.13;;;31.60;96.70;;;;;;5039786;28;20049;-78
2022/09/06 11:43:17;;;;;;;2.67;1.40;;;31.70;96.70;;;;;;5037015;28;20061;-78
2022/09/06 11:45:49;;;;;;;4.40;1.42;;;31.60;96.70;;;;;;5043278;28;20055;-78
2022/09/06 11:48:35;;;;;;;3.58;1.40;;;31.80;96.70;;;;;;5041699;28;20045;-77
2022/09/06 11:51:05;;;;;;;2.53;1.50;;;31.90;96.70;;;;;;5035301;28;20040;-78
2022/09/06 11:53:56;;;;;;;4.85;1.90;;;31.90;96.70;;;;;;5040516;28;20052;-78
2022/09/06 11:56:30;;;;;;;3.30;1.45;;;31.80;96.70;;;;;;5043356;28;20048;-78
2022/09/06 11:59:05;;;;;;;3.22;1.30;;;31.90;96.70;;;;;;5042423;28;21000;-78
2022/09/06 12:01:39;;;;;;;2.88;1.52;;;31.80;96.70;;;;;;5045585;28;20490;-79
2022/09/06 12:04:09;;;;;;;4.05;1.63;;;31.90;96.70;;;;;;5047111;28;20095;-78
2022/09/06 12:06:40;;;;;;;2.17;1.58;;;32.10;96.70;;;;;;5044070;28;20044;-78
2022/09/06 12:09:30;;;;;;;4.15;1.20;;;32.30;96.70;;;;;;5038574;28;20080;-78
2022/09/06 12:11:59;;;;;;;4.03;1.35;;;32.10;96.70;;;;;;5044141;28;20601;-78
2022/09/06 12:14:38;;;;;;;3.25;1.20;;;32.20;96.70;;;;;;5037445;28;20075;-78
2022/09/06 12:17:25;;;;;;;4.55;1.27;;;32.40;96.70;;;;;;5040102;28;20148;-77
2022/09/06 12:20:07;;;;;;;2.42;1.20;;;32.50;96.70;;;;;;5043213;28;20604;-77
2022/09/06 12:23:03;;;;;;;4.45;1.10;;;32.70;96.70;;;;;;5043523;28;20053;-78
2022/09/06 12:25:54;;;;;;;3.80;1.55;;;32.90;96.70;;;;;;5043979;28;20529;-78
2022/09/06 12:28:36;;;;;;;3.22;1.15;;;32.90;96.70;;;;;;5037384;28;20087;-78
2022/09/06 12:31:30;;;;;;;2.97;1.15;;;32.80;96.70;;;;;;5035063;28;20037;-78
2022/09/06 12:34:04;;;;;;;1.83;1.10;;;32.70;96.70;;;;;;5045528;28;20065;-78
2022/09/06 12:36:33;;;;;;;2.83;1.20;;;32.70;96.70;;;;;;5037538;28;20067;-78
2022/09/06 12:39:04;;;;;;;2.60;1.15;;;32.90;96.70;;;;;;5042765;28;20491;-78
2022/09/06 12:41:37;;;;;;;3.92;1.20;;;33.10;96.70;;;;;;5043794;28;20090;-78
2022/09/06 12:44:13;;;;;;;2.63;1.40;;;33.10;96.70;;;;;;5025894;28;20053;-78
2022/09/06 12:46:48;;;;;;;3.17;1.25;;;33.10;96.70;;;;;;5042063;28;20052;-77
2022/09/06 12:49:20;;;;;;;3.15;1.15;;;33.00;96.70;;;;;;5045054;28;20045;-78
2022/09/06 12:51:49;;;;;;;3.50;1.00;;;33.10;96.70;;;;;;5043941;28;20048;-78
2022/09/06 12:54:21;;;;;;;4.13;1.13;;;33.20;96.70;;;;;;5045672;28;20065;-78
2022/09/06 12:56:50;;;;;;;2.20;1.05;;;33.40;96.70;;;;;;5043978;28;20079;-78
2022/09/06 12:59:20;;;;;;;2.03;0.80;;;33.30;96.70;;;;;;5043807;28;20041;-78
2022/09/06 13:01:59;;;;;;;4.13;0.95;;;33.20;96.70;;;;;;5040190;28;20061;-77
2022/09/06 13:04:34;;;;;;;4.18;1.15;;;33.40;96.70;;;;;;5056009;28;20040;-78
2022/09/06 13:07:03;;;;;;;2.65;0.88;;;33.60;96.70;;;;;;5045444;28;20490;-78
2022/09/06 13:09:32;;;;;;;3.22;1.05;;;33.80;96.70;;;;;;5041173;28;20087;-78
2022/09/06 13:12:05;;;;;;;2.33;1.00;;;34.00;96.70;;;;;;5045981;28;20045;-78
2022/09/06 13:14:35;;;;;;;1.90;1.00;;;33.90;96.70;;;;;;5044209;28;20435;-78
2022/09/06 13:17:04;;;;;;;4.47;1.48;;;33.80;96.70;;;;;;5043074;28;20053;-78